Airfield :
LOGIN :

Register | Disclaimer

   EN    FR    IT 

 










Legend :    VFR   Marginal VFR   IFR   Intensive IFR   Very Intensive IFR
Visi :
Ceiling :
>= 8 km
>= 3000ft
5 to 8 km
1000 to 3000 ft
1500m to 5 km
500 to 1000 ft
800 to 1500m
200 to 500 ft
< 800m
< 200 ft
Symbols :   Thunderstorms  Fog  Heavy snow  Heavy precipitations  Wind > 20 kt
SIGMETs :     Misc.  Thunderstorms  Icing  Turbulence  Mountain Waves  Volcanic Ashes







- Airport Elevation : -11 ft
- IATA code : AMS


EHAM - Amsterdam Schiphol

CURRENT METAR :
  • 201455Z 27016KT 9999 FEW030 18/12 Q1023 NOSIG

EXPIRED METARs :
  • 201425Z 27018KT 230V310 9999 FEW030 18/11 Q1023 NOSIG
  • 201355Z 27019KT 9999 FEW030 18/11 Q1023 NOSIG
  • 201325Z 27017KT 240V300 9999 FEW029 19/12 Q1022 NOSIG
  • 201255Z 27017KT 230V290 9999 FEW029 18/11 Q1022 NOSIG
  • 201225Z 27018KT 240V300 9999 FEW029 19/12 Q1022 NOSIG

TAF TAF EHAM
Valid from the 20 at 12:00 until the 21 at 18:00 UTC


201048Z 2012/2118 26016KT 9999 SCT030
BECMG 2017/2020 20006KT
No reported NOTAMs for that airfield.



MET'MAP, your aeronautical weather chart ! - Copyright ORBIFLY December 2007 - Disclaimer

ORBIFLY MET'MAP TEAM :

Programming & Development : Alexandra Zaïnal
Concept & Development : Baudouin d'Aumeries
Co-Development & Prog : Marc-Olivier Méhu
Technical & hardware support : Manuel Goepfert

Contact : metmap@orbifly.com




SOURCES & CREDITS :

   NOAA